createdAt,value
2022-12-19T05:58:16.130Z,102061.40
2022-12-19T06:00:50.149Z,102072.40
2022-12-19T06:03:24.092Z,102061.00
2022-12-19T06:05:58.281Z,102048.40
2022-12-19T06:08:32.349Z,102046.00
2022-12-19T06:11:08.273Z,102048.00
2022-12-19T06:13:43.285Z,102050.60
2022-12-19T06:16:20.077Z,102068.60
2022-12-19T06:18:54.150Z,102065.80
2022-12-19T06:21:28.458Z,102060.20
2022-12-19T06:24:02.398Z,102067.80
2022-12-19T06:26:36.470Z,102076.20
2022-12-19T06:29:10.270Z,102080.60
2022-12-19T06:31:44.021Z,102079.00
2022-12-19T06:34:33.210Z,102071.60
2022-12-19T06:37:12.937Z,102061.80
2022-12-19T06:39:47.272Z,102052.00
2022-12-19T06:42:24.123Z,102058.40
2022-12-19T06:44:58.860Z,102062.60
2022-12-19T06:47:34.245Z,102066.40
2022-12-19T06:50:09.552Z,102068.20
2022-12-19T06:52:43.291Z,102056.80
2022-12-19T06:55:17.629Z,102052.60
2022-12-19T06:57:51.831Z,102049.40
2022-12-19T07:00:26.079Z,102049.60
2022-12-19T07:03:01.982Z,102035.60
2022-12-19T07:05:36.422Z,102035.00
2022-12-19T07:08:11.297Z,102033.20
2022-12-19T07:10:45.317Z,102028.60
2022-12-19T07:13:19.268Z,102036.00
2022-12-19T07:15:55.546Z,102038.20
2022-12-19T07:18:32.451Z,102033.40
2022-12-19T07:21:08.750Z,102017.80
2022-12-19T07:23:43.985Z,102018.80
2022-12-19T07:26:18.635Z,102005.80
2022-12-19T07:28:52.447Z,102002.60
2022-12-19T07:31:26.184Z,101993.60
2022-12-19T07:34:00.127Z,101997.80
2022-12-19T07:36:34.346Z,101998.00
2022-12-19T07:39:08.520Z,101993.80
2022-12-19T07:41:43.454Z,101993.00
2022-12-19T07:44:17.909Z,101989.80
2022-12-19T07:46:51.893Z,101989.60
2022-12-19T07:49:26.019Z,101988.20
2022-12-19T07:52:00.074Z,101985.40
2022-12-19T07:54:35.214Z,101996.00
2022-12-19T07:57:09.916Z,101987.80
2022-12-19T07:59:43.967Z,101977.20
2022-12-19T08:02:18.355Z,101965.80
2022-12-19T08:04:52.510Z,101954.40
2022-12-19T08:07:27.132Z,101967.80
2022-12-19T08:10:01.445Z,101971.60
2022-12-19T08:12:39.284Z,101960.60
2022-12-19T08:15:14.791Z,101943.00
2022-12-19T08:17:49.588Z,101950.20
2022-12-19T08:20:24.361Z,101944.60
2022-12-19T08:22:58.466Z,101939.00
2022-12-19T08:25:35.926Z,101948.80
2022-12-19T08:28:10.053Z,101940.20
2022-12-19T08:30:45.046Z,101935.00
2022-12-19T08:33:19.369Z,101920.00
2022-12-19T08:35:53.600Z,101919.20
2022-12-19T08:38:28.939Z,101910.20
2022-12-19T08:41:03.996Z,101896.20
2022-12-19T08:43:38.432Z,101894.80
2022-12-19T08:46:12.775Z,101887.40
2022-12-19T08:48:48.233Z,101885.20
2022-12-19T08:51:22.526Z,101886.20
2022-12-19T08:53:56.890Z,101886.60
2022-12-19T08:56:30.973Z,101886.80
2022-12-19T08:59:06.683Z,101886.60
2022-12-19T09:01:40.499Z,101886.60
2022-12-19T09:05:57.508Z,101884.20
2022-12-19T09:07:10.022Z,101880.00
2022-12-19T09:09:45.370Z,101875.60
2022-12-19T09:12:20.377Z,101868.20
2022-12-19T09:14:55.037Z,101857.20
2022-12-19T09:17:29.588Z,101858.00
2022-12-19T09:20:03.499Z,101846.40
2022-12-19T09:22:37.858Z,101841.60
2022-12-19T09:25:14.895Z,101835.40
2022-12-19T09:28:25.841Z,101829.20
2022-12-19T09:30:43.009Z,101824.40
2022-12-19T09:33:17.954Z,101824.40
2022-12-19T09:36:18.713Z,101808.40
2022-12-19T09:39:00.462Z,101811.40
2022-12-19T09:42:23.118Z,101804.60
2022-12-19T09:45:36.338Z,101788.80
2022-12-19T09:48:24.555Z,101783.80
2022-12-19T09:51:18.520Z,101773.20
2022-12-19T09:54:03.679Z,101765.40
2022-12-19T09:56:54.075Z,101755.00
2022-12-19T09:59:47.934Z,101746.40
2022-12-19T10:02:42.109Z,101742.00
2022-12-19T10:06:04.647Z,101735.80
2022-12-19T10:08:33.296Z,101720.60
2022-12-19T10:12:39.748Z,101721.80
2022-12-19T10:14:53.281Z,101709.80
2022-12-19T10:17:54.981Z,101702.00
2022-12-19T10:20:41.746Z,101705.20
2022-12-19T10:24:04.126Z,101702.40
2022-12-19T10:26:53.108Z,101687.40
2022-12-19T10:30:04.376Z,101684.40
2022-12-19T10:33:00.915Z,101677.80
2022-12-19T10:35:44.247Z,101668.00
2022-12-19T10:38:38.356Z,101655.80
2022-12-19T10:41:25.918Z,101660.40
2022-12-19T10:44:07.591Z,101657.20
2022-12-19T10:46:54.085Z,101652.00
2022-12-19T10:49:30.970Z,101652.80
2022-12-19T10:52:08.803Z,101650.80
2022-12-19T10:54:53.976Z,101647.00
2022-12-19T10:57:32.701Z,101628.80
2022-12-19T11:00:16.405Z,101629.20
2022-12-19T11:02:53.756Z,101622.40
2022-12-19T11:05:32.356Z,101622.40
2022-12-19T11:08:24.889Z,101612.60
2022-12-19T11:12:08.052Z,101602.00
2022-12-19T11:18:56.751Z,101605.60
2022-12-19T11:27:10.913Z,101612.20
2022-12-19T11:29:35.141Z,101595.00
2022-12-19T11:29:54.950Z,101580.00
2022-12-19T11:29:55.166Z,101592.80
2022-12-19T11:33:19.938Z,101569.20
2022-12-19T11:35:58.517Z,101561.40
2022-12-19T11:38:49.100Z,101565.40
2022-12-19T11:41:39.145Z,101553.00
2022-12-19T11:44:31.112Z,101555.40
2022-12-19T11:47:26.887Z,101543.60
2022-12-19T11:50:12.669Z,101541.80
2022-12-19T11:53:05.964Z,101537.40
2022-12-19T11:55:52.252Z,101529.80
2022-12-19T11:58:37.446Z,101521.00
2022-12-19T12:01:25.980Z,101512.40
2022-12-19T12:04:34.455Z,101503.00
2022-12-19T12:07:39.871Z,101493.60
2022-12-19T12:14:55.769Z,101500.80
2022-12-19T12:22:48.707Z,101505.20
2022-12-19T12:31:07.084Z,101515.40
2022-12-19T12:31:15.190Z,101502.40
2022-12-19T12:31:31.196Z,101503.20
2022-12-19T12:31:45.374Z,101526.80
2022-12-19T12:31:50.785Z,101517.80
2022-12-19T12:35:42.373Z,101518.60
2022-12-19T12:39:55.072Z,101513.00
2022-12-19T12:42:48.595Z,101518.00
2022-12-19T12:45:28.858Z,101497.20
2022-12-19T12:48:04.090Z,101493.40
2022-12-19T12:50:53.162Z,101487.60
2022-12-19T12:53:37.968Z,101477.20
2022-12-19T12:56:23.223Z,101477.00
2022-12-19T12:59:27.245Z,101482.00
2022-12-19T13:02:19.776Z,101475.20
2022-12-19T13:05:17.010Z,101455.20
2022-12-19T13:07:57.843Z,101436.60
2022-12-19T13:10:40.904Z,101434.40
2022-12-19T13:13:25.680Z,101444.00
2022-12-19T13:16:50.020Z,101436.20
2022-12-19T13:19:30.846Z,101437.40
2022-12-19T13:22:42.977Z,101444.40
2022-12-19T13:25:55.370Z,101453.40
2022-12-19T13:28:46.450Z,101450.00
2022-12-19T13:31:24.064Z,101458.40
2022-12-19T13:34:22.392Z,101467.20
2022-12-19T13:39:50.928Z,101464.00
2022-12-19T13:40:32.838Z,101472.60
2022-12-19T13:43:38.365Z,101474.80
2022-12-19T13:46:41.567Z,101482.60
2022-12-19T13:49:28.902Z,101480.80
2022-12-19T13:52:13.515Z,101479.60
2022-12-19T13:54:58.709Z,101467.40
2022-12-19T13:57:35.064Z,101473.00
2022-12-19T14:00:21.857Z,101474.00
2022-12-19T14:03:00.183Z,101470.00
2022-12-19T14:06:17.506Z,101469.40
2022-12-19T14:08:35.293Z,101465.60
2022-12-19T14:11:27.405Z,101464.60
2022-12-19T14:14:35.327Z,101470.20
2022-12-19T14:17:19.602Z,101467.00
2022-12-19T14:20:28.594Z,101459.20
2022-12-19T14:22:56.322Z,101457.20
2022-12-19T14:28:14.936Z,101459.20
2022-12-19T14:28:54.539Z,101472.40
2022-12-19T14:31:30.735Z,101477.20
2022-12-19T14:34:43.218Z,101486.40
2022-12-19T14:37:01.592Z,101476.80
2022-12-19T14:39:38.919Z,101472.00
2022-12-19T14:43:59.131Z,101464.60
2022-12-19T14:52:53.686Z,101470.60
2022-12-19T14:54:18.272Z,101465.80
2022-12-19T14:54:33.735Z,101475.20
2022-12-19T14:58:54.409Z,101470.80
2022-12-19T15:01:08.226Z,101467.40
2022-12-19T15:04:49.168Z,101465.20
2022-12-19T15:07:09.249Z,101457.60
2022-12-19T15:11:02.448Z,101454.40
2022-12-19T15:14:51.166Z,101452.40
2022-12-19T15:16:31.236Z,101447.60
2022-12-19T15:19:11.877Z,101446.20
2022-12-19T15:21:45.761Z,101444.20
2022-12-19T15:24:20.550Z,101441.60
2022-12-19T15:26:58.725Z,101448.00
2022-12-19T15:29:36.288Z,101442.20
2022-12-19T15:32:16.243Z,101441.80
2022-12-19T15:34:51.822Z,101441.00
2022-12-19T15:37:26.065Z,101446.60
2022-12-19T15:40:00.090Z,101445.60
2022-12-19T15:42:34.883Z,101445.60
2022-12-19T15:45:13.978Z,101438.80
2022-12-19T15:47:50.337Z,101426.80
2022-12-19T15:50:27.967Z,101422.80
2022-12-19T15:53:24.500Z,101425.60
2022-12-19T15:56:10.355Z,101426.60
2022-12-19T15:58:44.671Z,101415.80
2022-12-19T16:01:19.316Z,101402.80
2022-12-19T16:03:54.713Z,101409.80
2022-12-19T16:06:29.128Z,101408.00
2022-12-19T16:09:10.270Z,101410.20
2022-12-19T16:11:44.808Z,101411.80
2022-12-19T16:14:20.154Z,101399.60
2022-12-19T16:16:57.675Z,101391.00
2022-12-19T16:19:33.757Z,101389.00
2022-12-19T16:22:22.657Z,101376.00
2022-12-19T16:24:58.587Z,101377.80
2022-12-19T16:27:34.067Z,101379.00
2022-12-19T16:30:23.935Z,101378.20
2022-12-19T16:32:58.275Z,101379.80
2022-12-19T16:36:04.757Z,101378.40
2022-12-19T16:38:28.001Z,101379.40
2022-12-19T16:41:02.713Z,101390.00
2022-12-19T16:43:40.019Z,101387.80
2022-12-19T16:46:23.611Z,101382.40
2022-12-19T16:48:58.593Z,101382.40
2022-12-19T16:51:33.755Z,101388.00
2022-12-19T16:54:08.429Z,101384.80
2022-12-19T16:56:47.956Z,101379.60
2022-12-19T16:59:28.427Z,101382.40
2022-12-19T17:02:03.376Z,101380.60
2022-12-19T17:04:42.014Z,101369.40
2022-12-19T17:07:17.659Z,101380.80
2022-12-19T17:09:52.284Z,101378.00
2022-12-19T17:12:28.692Z,101376.80
2022-12-19T17:15:03.736Z,101377.20
2022-12-19T17:17:37.526Z,101379.60
2022-12-19T17:20:19.789Z,101372.20
2022-12-19T17:22:53.878Z,101371.20
2022-12-19T17:25:29.918Z,101368.40
2022-12-19T17:28:04.202Z,101354.60
2022-12-19T17:30:39.958Z,101354.80
2022-12-19T17:33:17.689Z,101356.20
2022-12-19T17:35:51.809Z,101357.60
2022-12-19T17:38:27.937Z,101351.60
2022-12-19T17:41:01.910Z,101349.80
2022-12-19T17:43:35.979Z,101330.60
2022-12-19T17:46:20.306Z,101334.60
2022-12-19T17:48:56.046Z,101337.00
2022-12-19T17:51:30.279Z,101334.60
2022-12-19T17:54:04.386Z,101336.40
2022-12-19T17:56:38.536Z,101340.80
2022-12-19T17:59:12.405Z,101338.80
2022-12-19T18:01:47.649Z,101342.20
2022-12-19T18:04:32.855Z,101341.00
2022-12-19T18:07:11.735Z,101343.00
2022-12-19T18:09:46.225Z,101332.00
2022-12-19T18:12:20.539Z,101337.40
2022-12-19T18:14:54.594Z,101339.20
2022-12-19T18:17:30.793Z,101347.00
2022-12-19T18:20:06.322Z,101342.80
2022-12-19T18:22:40.165Z,101338.00
2022-12-19T18:25:21.116Z,101328.20
2022-12-19T18:27:56.227Z,101330.80
2022-12-19T18:30:30.251Z,101324.80
2022-12-19T18:33:08.098Z,101321.80
2022-12-19T18:35:47.603Z,101320.80
2022-12-19T18:38:24.625Z,101317.60
2022-12-19T18:40:58.761Z,101312.60
2022-12-19T18:43:32.825Z,101318.60
2022-12-19T18:46:07.177Z,101317.60
2022-12-19T18:48:42.564Z,101322.00
2022-12-19T18:51:21.992Z,101314.80
2022-12-19T18:53:56.145Z,101318.60
2022-12-19T18:56:30.515Z,101314.20
2022-12-19T18:59:05.183Z,101315.40
2022-12-19T19:01:41.231Z,101320.80
2022-12-19T19:04:18.293Z,101318.60
2022-12-19T19:06:55.205Z,101314.00
2022-12-19T19:09:29.216Z,101304.20
2022-12-19T19:12:03.166Z,101304.00
2022-12-19T19:14:38.007Z,101303.80
2022-12-19T19:17:32.175Z,101295.40
2022-12-19T19:20:09.505Z,101289.00
2022-12-19T19:22:43.510Z,101290.60
2022-12-19T19:25:17.736Z,101281.60
2022-12-19T19:27:52.101Z,101293.60
2022-12-19T19:30:26.543Z,101286.60
2022-12-19T19:33:07.376Z,101287.20
2022-12-19T19:35:43.579Z,101292.00
2022-12-19T19:38:19.870Z,101300.40
2022-12-19T19:40:54.435Z,101300.00
2022-12-19T19:43:33.976Z,101297.40
2022-12-19T19:46:08.604Z,101293.00
2022-12-19T19:48:42.819Z,101289.20
2022-12-19T19:51:19.648Z,101295.40
2022-12-19T19:53:53.754Z,101301.00
2022-12-19T19:56:27.940Z,101285.00
2022-12-19T19:59:02.944Z,101289.40
2022-12-19T20:01:37.243Z,101285.20
2022-12-19T20:04:12.657Z,101286.00
2022-12-19T20:06:46.783Z,101289.40
2022-12-19T20:09:20.852Z,101289.20
2022-12-19T20:11:55.431Z,101290.60
2022-12-19T20:14:30.469Z,101286.80
2022-12-19T20:17:05.042Z,101284.00
2022-12-19T20:19:39.244Z,101286.20
2022-12-19T20:22:13.988Z,101271.20
2022-12-19T20:24:48.612Z,101264.20
2022-12-19T20:27:22.701Z,101255.60
2022-12-19T20:29:57.039Z,101253.60
2022-12-19T20:32:31.827Z,101251.60
2022-12-19T20:35:12.432Z,101249.80
2022-12-19T20:37:48.741Z,101255.20
2022-12-19T20:40:22.969Z,101256.20
2022-12-19T20:42:57.727Z,101260.20
2022-12-19T20:45:32.480Z,101258.20
2022-12-19T20:48:07.094Z,101252.60
2022-12-19T20:50:43.549Z,101254.80
2022-12-19T20:53:17.879Z,101251.00
2022-12-19T20:55:58.982Z,101256.80
2022-12-19T20:58:36.164Z,101258.60
2022-12-19T21:01:14.463Z,101266.80
2022-12-19T21:03:49.616Z,101266.40
2022-12-19T21:06:27.365Z,101269.60
2022-12-19T21:09:02.742Z,101272.60
2022-12-19T21:11:37.447Z,101266.00
2022-12-19T21:14:12.079Z,101273.40
2022-12-19T21:16:47.003Z,101272.20
2022-12-19T21:19:21.687Z,101268.60
2022-12-19T21:21:55.882Z,101258.20
2022-12-19T21:24:30.594Z,101246.80
2022-12-19T21:27:05.242Z,101245.00
2022-12-19T21:29:40.063Z,101241.80
2022-12-19T21:32:18.840Z,101246.40
2022-12-19T21:34:55.236Z,101234.80
2022-12-19T21:37:29.456Z,101236.80
2022-12-19T21:40:03.832Z,101236.60
2022-12-19T21:42:38.297Z,101238.00
2022-12-19T21:45:14.975Z,101234.40
2022-12-19T21:47:49.192Z,101234.20
2022-12-19T21:50:23.492Z,101231.00
2022-12-19T21:52:57.613Z,101235.60
2022-12-19T21:55:31.833Z,101239.20
2022-12-19T21:58:06.037Z,101242.80
2022-12-19T22:00:40.647Z,101237.60
2022-12-19T22:03:15.711Z,101243.20
2022-12-19T22:05:50.188Z,101245.60
2022-12-19T22:08:24.235Z,101237.00
2022-12-19T22:10:58.767Z,101236.40
2022-12-19T22:13:32.752Z,101229.00
2022-12-19T22:16:07.512Z,101223.20
2022-12-19T22:18:42.512Z,101217.60
2022-12-19T22:21:18.307Z,101222.60
2022-12-19T22:23:52.484Z,101220.40
2022-12-19T22:26:28.820Z,101223.80
2022-12-19T22:29:03.118Z,101221.80
2022-12-19T22:31:38.581Z,101220.20
2022-12-19T22:34:16.051Z,101213.00
2022-12-19T22:36:50.744Z,101214.60
2022-12-19T22:39:25.936Z,101207.40
2022-12-19T22:42:00.181Z,101204.80
2022-12-19T22:44:34.132Z,101202.80
2022-12-19T22:47:08.206Z,101208.20
2022-12-19T22:49:42.786Z,101210.60
2022-12-19T22:52:17.564Z,101212.20
2022-12-19T22:54:51.991Z,101216.40
2022-12-19T22:57:26.068Z,101220.80
2022-12-19T23:00:00.231Z,101218.80
2022-12-19T23:02:34.219Z,101210.40
2022-12-19T23:05:09.907Z,101206.60
2022-12-19T23:07:43.844Z,101202.80
2022-12-19T23:10:18.482Z,101205.00
2022-12-19T23:12:52.212Z,101203.20
2022-12-19T23:15:26.514Z,101199.00
2022-12-19T23:18:00.436Z,101197.20
2022-12-19T23:20:34.393Z,101190.80
2022-12-19T23:23:08.734Z,101189.60
2022-12-19T23:25:46.216Z,101181.00
2022-12-19T23:28:20.316Z,101171.40
2022-12-19T23:31:02.814Z,101173.20
2022-12-19T23:33:38.016Z,101176.60
2022-12-19T23:36:12.850Z,101178.20
2022-12-19T23:38:46.670Z,101171.60
2022-12-19T23:41:21.278Z,101174.00
2022-12-19T23:43:56.102Z,101167.80
2022-12-19T23:46:30.664Z,101164.60
2022-12-19T23:49:04.586Z,101164.40
2022-12-19T23:51:38.576Z,101168.40
2022-12-19T23:54:12.646Z,101157.80
2022-12-19T23:56:46.604Z,101149.00
2022-12-19T23:59:20.540Z,101148.20
